sensor_id;sensor_type;location;lat;lon;timestamp;temperature;humidity
64111;DHT22;50401;48.188;11.566;2024-03-25T00:01:03;5.16;80.55
64111;DHT22;50401;48.188;11.566;2024-03-25T00:03:29;5.12;80.52
64111;DHT22;50401;48.188;11.566;2024-03-25T00:05:54;5.10;80.56
64111;DHT22;50401;48.188;11.566;2024-03-25T00:08:20;5.12;80.63
64111;DHT22;50401;48.188;11.566;2024-03-25T00:10:45;5.06;80.60
64111;DHT22;50401;48.188;11.566;2024-03-25T00:13:11;5.09;80.63
64111;DHT22;50401;48.188;11.566;2024-03-25T00:15:36;5.08;80.45
64111;DHT22;50401;48.188;11.566;2024-03-25T00:18:04;5.09;80.18
64111;DHT22;50401;48.188;11.566;2024-03-25T00:20:29;5.10;80.66
64111;DHT22;50401;48.188;11.566;2024-03-25T00:22:55;5.12;80.43
64111;DHT22;50401;48.188;11.566;2024-03-25T00:25:20;5.12;80.33
64111;DHT22;50401;48.188;11.566;2024-03-25T00:27:46;5.22;79.96
64111;DHT22;50401;48.188;11.566;2024-03-25T00:30:12;5.23;79.91
64111;DHT22;50401;48.188;11.566;2024-03-25T00:32:37;5.19;79.89
64111;DHT22;50401;48.188;11.566;2024-03-25T00:35:03;5.18;79.50
64111;DHT22;50401;48.188;11.566;2024-03-25T00:37:29;5.20;79.82
64111;DHT22;50401;48.188;11.566;2024-03-25T00:39:55;5.23;79.64
64111;DHT22;50401;48.188;11.566;2024-03-25T00:42:20;5.16;79.77
64111;DHT22;50401;48.188;11.566;2024-03-25T00:44:45;5.22;79.84
64111;DHT22;50401;48.188;11.566;2024-03-25T00:47:11;5.13;79.66
64111;DHT22;50401;48.188;11.566;2024-03-25T00:49:36;5.15;79.94
64111;DHT22;50401;48.188;11.566;2024-03-25T00:52:02;5.23;79.39
64111;DHT22;50401;48.188;11.566;2024-03-25T00:54:27;5.16;79.82
64111;DHT22;50401;48.188;11.566;2024-03-25T00:56:53;5.12;79.87
64111;DHT22;50401;48.188;11.566;2024-03-25T00:59:19;5.13;80.07
64111;DHT22;50401;48.188;11.566;2024-03-25T01:01:44;5.24;79.88
64111;DHT22;50401;48.188;11.566;2024-03-25T01:04:10;5.24;79.71
64111;DHT22;50401;48.188;11.566;2024-03-25T01:06:35;5.24;79.60
64111;DHT22;50401;48.188;11.566;2024-03-25T01:09:01;5.23;79.38
64111;DHT22;50401;48.188;11.566;2024-03-25T01:11:26;5.28;79.16
64111;DHT22;50401;48.188;11.566;2024-03-25T01:13:52;5.26;79.17
64111;DHT22;50401;48.188;11.566;2024-03-25T01:16:17;5.23;79.42
64111;DHT22;50401;48.188;11.566;2024-03-25T01:18:43;5.28;78.97
64111;DHT22;50401;48.188;11.566;2024-03-25T01:21:08;5.30;79.10
64111;DHT22;50401;48.188;11.566;2024-03-25T01:23:34;5.23;79.24
64111;DHT22;50401;48.188;11.566;2024-03-25T01:26:00;5.27;79.30
64111;DHT22;50401;48.188;11.566;2024-03-25T01:28:25;5.19;79.63
64111;DHT22;50401;48.188;11.566;2024-03-25T01:30:51;5.22;79.77
64111;DHT22;50401;48.188;11.566;2024-03-25T01:33:16;5.15;79.72
64111;DHT22;50401;48.188;11.566;2024-03-25T01:35:42;5.13;79.91
64111;DHT22;50401;48.188;11.566;2024-03-25T01:38:08;5.15;79.91
64111;DHT22;50401;48.188;11.566;2024-03-25T01:40:34;5.13;79.74
64111;DHT22;50401;48.188;11.566;2024-03-25T01:43:01;5.05;79.85
64111;DHT22;50401;48.188;11.566;2024-03-25T01:45:30;4.96;80.33
64111;DHT22;50401;48.188;11.566;2024-03-25T01:48:04;4.99;80.33
64111;DHT22;50401;48.188;11.566;2024-03-25T01:50:35;4.97;80.18
64111;DHT22;50401;48.188;11.566;2024-03-25T01:53:02;4.91;80.46
64111;DHT22;50401;48.188;11.566;2024-03-25T01:55:29;4.95;80.37
64111;DHT22;50401;48.188;11.566;2024-03-25T01:57:55;5.00;80.37
64111;DHT22;50401;48.188;11.566;2024-03-25T02:00:22;4.95;80.17
64111;DHT22;50401;48.188;11.566;2024-03-25T02:02:48;4.93;80.54
64111;DHT22;50401;48.188;11.566;2024-03-25T02:05:18;4.93;80.89
64111;DHT22;50401;48.188;11.566;2024-03-25T02:07:44;4.99;80.92
64111;DHT22;50401;48.188;11.566;2024-03-25T02:10:10;4.88;80.48
64111;DHT22;50401;48.188;11.566;2024-03-25T02:12:38;4.93;80.59
64111;DHT22;50401;48.188;11.566;2024-03-25T02:15:05;4.86;80.63
64111;DHT22;50401;48.188;11.566;2024-03-25T02:17:31;4.91;80.58
64111;DHT22;50401;48.188;11.566;2024-03-25T02:19:57;4.88;80.47
64111;DHT22;50401;48.188;11.566;2024-03-25T02:22:22;4.89;80.48
64111;DHT22;50401;48.188;11.566;2024-03-25T02:24:49;4.84;80.59
64111;DHT22;50401;48.188;11.566;2024-03-25T02:27:16;4.84;80.54
64111;DHT22;50401;48.188;11.566;2024-03-25T02:29:42;4.86;80.21
64111;DHT22;50401;48.188;11.566;2024-03-25T02:32:10;4.81;80.52
64111;DHT22;50401;48.188;11.566;2024-03-25T02:34:47;4.91;80.03
64111;DHT22;50401;48.188;11.566;2024-03-25T02:37:13;4.97;80.16
64111;DHT22;50401;48.188;11.566;2024-03-25T02:39:39;4.99;80.03
64111;DHT22;50401;48.188;11.566;2024-03-25T02:42:04;4.92;79.97
64111;DHT22;50401;48.188;11.566;2024-03-25T02:44:33;4.93;79.83
64111;DHT22;50401;48.188;11.566;2024-03-25T02:46:59;4.93;80.09
64111;DHT22;50401;48.188;11.566;2024-03-25T02:49:25;4.95;80.05
64111;DHT22;50401;48.188;11.566;2024-03-25T02:51:51;5.00;79.93
64111;DHT22;50401;48.188;11.566;2024-03-25T02:54:16;5.06;79.64
64111;DHT22;50401;48.188;11.566;2024-03-25T02:56:43;5.02;79.61
64111;DHT22;50401;48.188;11.566;2024-03-25T02:59:08;4.95;79.65
64111;DHT22;50401;48.188;11.566;2024-03-25T03:01:34;4.93;79.65
64111;DHT22;50401;48.188;11.566;2024-03-25T03:03:59;4.86;79.90
64111;DHT22;50401;48.188;11.566;2024-03-25T03:06:24;4.86;79.89
64111;DHT22;50401;48.188;11.566;2024-03-25T03:08:50;4.89;79.66
64111;DHT22;50401;48.188;11.566;2024-03-25T03:11:15;4.88;79.81
64111;DHT22;50401;48.188;11.566;2024-03-25T03:13:41;4.91;79.81
64111;DHT22;50401;48.188;11.566;2024-03-25T03:16:06;4.97;79.44
64111;DHT22;50401;48.188;11.566;2024-03-25T03:18:32;4.97;79.57
64111;DHT22;50401;48.188;11.566;2024-03-25T03:20:57;4.95;79.29
64111;DHT22;50401;48.188;11.566;2024-03-25T03:23:23;4.89;79.31
64111;DHT22;50401;48.188;11.566;2024-03-25T03:25:49;4.91;79.36
64111;DHT22;50401;48.188;11.566;2024-03-25T03:28:15;4.89;79.45
64111;DHT22;50401;48.188;11.566;2024-03-25T03:30:41;4.86;79.35
64111;DHT22;50401;48.188;11.566;2024-03-25T03:33:06;4.89;79.35
64111;DHT22;50401;48.188;11.566;2024-03-25T03:35:35;4.86;79.43
64111;DHT22;50401;48.188;11.566;2024-03-25T03:38:00;4.89;79.17
64111;DHT22;50401;48.188;11.566;2024-03-25T03:40:26;4.91;79.19
64111;DHT22;50401;48.188;11.566;2024-03-25T03:42:51;4.86;79.23
64111;DHT22;50401;48.188;11.566;2024-03-25T03:45:17;4.86;79.29
64111;DHT22;50401;48.188;11.566;2024-03-25T03:47:42;4.77;79.48
64111;DHT22;50401;48.188;11.566;2024-03-25T03:50:08;4.78;79.65
64111;DHT22;50401;48.188;11.566;2024-03-25T03:52:33;4.82;79.30
64111;DHT22;50401;48.188;11.566;2024-03-25T03:54:59;4.75;79.01
64111;DHT22;50401;48.188;11.566;2024-03-25T03:57:25;4.77;79.18
64111;DHT22;50401;48.188;11.566;2024-03-25T03:59:51;4.67;79.39
64111;DHT22;50401;48.188;11.566;2024-03-25T04:02:17;4.77;79.18
64111;DHT22;50401;48.188;11.566;2024-03-25T04:04:43;4.82;78.92
64111;DHT22;50401;48.188;11.566;2024-03-25T04:07:08;4.67;79.36
64111;DHT22;50401;48.188;11.566;2024-03-25T04:09:33;4.69;79.37
64111;DHT22;50401;48.188;11.566;2024-03-25T04:11:59;4.54;79.64
64111;DHT22;50401;48.188;11.566;2024-03-25T04:14:26;4.54;79.57
64111;DHT22;50401;48.188;11.566;2024-03-25T04:16:51;4.56;79.62
64111;DHT22;50401;48.188;11.566;2024-03-25T04:19:19;4.37;80.19
64111;DHT22;50401;48.188;11.566;2024-03-25T04:21:45;4.42;80.35
64111;DHT22;50401;48.188;11.566;2024-03-25T04:24:11;4.43;80.22
64111;DHT22;50401;48.188;11.566;2024-03-25T04:26:37;4.46;80.12
64111;DHT22;50401;48.188;11.566;2024-03-25T04:29:02;4.43;80.06
64111;DHT22;50401;48.188;11.566;2024-03-25T04:31:28;4.47;80.20
64111;DHT22;50401;48.188;11.566;2024-03-25T04:33:53;4.39;80.51
64111;DHT22;50401;48.188;11.566;2024-03-25T04:36:18;4.37;80.64
64111;DHT22;50401;48.188;11.566;2024-03-25T04:38:44;4.37;80.71
64111;DHT22;50401;48.188;11.566;2024-03-25T04:41:09;4.32;81.03
64111;DHT22;50401;48.188;11.566;2024-03-25T04:43:35;4.34;81.01
64111;DHT22;50401;48.188;11.566;2024-03-25T04:46:01;4.29;80.96
64111;DHT22;50401;48.188;11.566;2024-03-25T04:48:26;4.40;80.98
64111;DHT22;50401;48.188;11.566;2024-03-25T04:50:51;4.44;80.56
64111;DHT22;50401;48.188;11.566;2024-03-25T04:53:17;4.36;80.37
64111;DHT22;50401;48.188;11.566;2024-03-25T04:55:42;4.42;80.46
64111;DHT22;50401;48.188;11.566;2024-03-25T04:58:08;4.39;80.48
64111;DHT22;50401;48.188;11.566;2024-03-25T05:00:34;4.43;80.37
64111;DHT22;50401;48.188;11.566;2024-03-25T05:02:59;4.47;80.28
64111;DHT22;50401;48.188;11.566;2024-03-25T05:05:25;4.50;80.16
64111;DHT22;50401;48.188;11.566;2024-03-25T05:07:50;4.51;79.97
64111;DHT22;50401;48.188;11.566;2024-03-25T05:10:16;4.51;79.97
64111;DHT22;50401;48.188;11.566;2024-03-25T05:12:41;4.51;80.22
64111;DHT22;50401;48.188;11.566;2024-03-25T05:15:09;4.56;80.03
64111;DHT22;50401;48.188;11.566;2024-03-25T05:17:34;4.53;79.88
64111;DHT22;50401;48.188;11.566;2024-03-25T05:20:00;4.54;79.82
64111;DHT22;50401;48.188;11.566;2024-03-25T05:22:25;4.60;79.69
64111;DHT22;50401;48.188;11.566;2024-03-25T05:24:51;4.56;79.57
64111;DHT22;50401;48.188;11.566;2024-03-25T05:27:16;4.57;79.26
64111;DHT22;50401;48.188;11.566;2024-03-25T05:29:41;4.61;79.17
64111;DHT22;50401;48.188;11.566;2024-03-25T05:32:07;4.64;79.16
64111;DHT22;50401;48.188;11.566;2024-03-25T05:34:32;4.65;79.12
64111;DHT22;50401;48.188;11.566;2024-03-25T05:36:58;4.69;79.17
64111;DHT22;50401;48.188;11.566;2024-03-25T05:39:23;4.78;78.92
64111;DHT22;50401;48.188;11.566;2024-03-25T05:41:49;4.88;78.56
64111;DHT22;50401;48.188;11.566;2024-03-25T05:44:14;4.91;78.29
64111;DHT22;50401;48.188;11.566;2024-03-25T05:46:40;4.89;78.29
64111;DHT22;50401;48.188;11.566;2024-03-25T05:49:06;4.91;78.31
64111;DHT22;50401;48.188;11.566;2024-03-25T05:51:32;4.93;78.05
64111;DHT22;50401;48.188;11.566;2024-03-25T05:54:01;5.02;78.25
64111;DHT22;50401;48.188;11.566;2024-03-25T05:56:27;5.08;78.22
64111;DHT22;50401;48.188;11.566;2024-03-25T05:58:58;5.13;77.92
64111;DHT22;50401;48.188;11.566;2024-03-25T06:01:24;5.24;77.77
64111;DHT22;50401;48.188;11.566;2024-03-25T06:03:49;5.26;77.44
64111;DHT22;50401;48.188;11.566;2024-03-25T06:06:15;5.48;76.62
64111;DHT22;50401;48.188;11.566;2024-03-25T06:08:40;5.48;76.23
64111;DHT22;50401;48.188;11.566;2024-03-25T06:11:06;5.55;75.89
64111;DHT22;50401;48.188;11.566;2024-03-25T06:13:31;5.63;75.55
64111;DHT22;50401;48.188;11.566;2024-03-25T06:15:58;5.78;75.18
64111;DHT22;50401;48.188;11.566;2024-03-25T06:18:23;6.03;74.85
64111;DHT22;50401;48.188;11.566;2024-03-25T06:20:49;5.86;74.65
64111;DHT22;50401;48.188;11.566;2024-03-25T06:23:24;5.99;74.59
64111;DHT22;50401;48.188;11.566;2024-03-25T06:25:51;6.04;74.42
64111;DHT22;50401;48.188;11.566;2024-03-25T06:28:17;6.06;74.19
64111;DHT22;50401;48.188;11.566;2024-03-25T06:30:42;6.03;74.46
64111;DHT22;50401;48.188;11.566;2024-03-25T06:33:27;6.20;73.73
64111;DHT22;50401;48.188;11.566;2024-03-25T06:36:11;6.38;72.97
64111;DHT22;50401;48.188;11.566;2024-03-25T06:38:36;6.48;73.01
64111;DHT22;50401;48.188;11.566;2024-03-25T06:41:01;6.45;73.06
64111;DHT22;50401;48.188;11.566;2024-03-25T06:43:27;6.56;72.70
64111;DHT22;50401;48.188;11.566;2024-03-25T06:45:54;6.75;72.33
64111;DHT22;50401;48.188;11.566;2024-03-25T06:48:19;6.82;71.71
64111;DHT22;50401;48.188;11.566;2024-03-25T06:50:57;6.86;71.66
64111;DHT22;50401;48.188;11.566;2024-03-25T06:53:23;6.86;71.84
64111;DHT22;50401;48.188;11.566;2024-03-25T06:55:55;7.05;71.56
64111;DHT22;50401;48.188;11.566;2024-03-25T06:58:22;7.55;70.19
64111;DHT22;50401;48.188;11.566;2024-03-25T07:00:48;8.08;68.24
64111;DHT22;50401;48.188;11.566;2024-03-25T07:03:21;8.56;67.75
64111;DHT22;50401;48.188;11.566;2024-03-25T07:05:47;9.51;65.39
64111;DHT22;50401;48.188;11.566;2024-03-25T07:08:14;9.88;63.36
64111;DHT22;50401;48.188;11.566;2024-03-25T07:10:42;11.17;60.68
64111;DHT22;50401;48.188;11.566;2024-03-25T07:13:08;12.48;57.22
64111;DHT22;50401;48.188;11.566;2024-03-25T07:15:33;13.42;54.20
64111;DHT22;50401;48.188;11.566;2024-03-25T07:17:59;14.63;50.54
64111;DHT22;50401;48.188;11.566;2024-03-25T07:20:25;15.36;48.79
64111;DHT22;50401;48.188;11.566;2024-03-25T07:22:52;15.54;47.66
64111;DHT22;50401;48.188;11.566;2024-03-25T07:25:20;15.60;46.95
64111;DHT22;50401;48.188;11.566;2024-03-25T07:27:45;16.63;44.88
64111;DHT22;50401;48.188;11.566;2024-03-25T07:30:11;18.52;40.90
64111;DHT22;50401;48.188;11.566;2024-03-25T07:32:36;19.51;38.55
64111;DHT22;50401;48.188;11.566;2024-03-25T07:35:02;20.52;37.69
64111;DHT22;50401;48.188;11.566;2024-03-25T07:37:30;22.49;35.09
64111;DHT22;50401;48.188;11.566;2024-03-25T07:39:55;23.01;33.76
64111;DHT22;50401;48.188;11.566;2024-03-25T07:42:21;23.85;31.64
64111;DHT22;50401;48.188;11.566;2024-03-25T07:44:47;22.81;33.12
64111;DHT22;50401;48.188;11.566;2024-03-25T07:47:12;24.05;31.01
64111;DHT22;50401;48.188;11.566;2024-03-25T07:49:38;24.34;30.89
64111;DHT22;50401;48.188;11.566;2024-03-25T07:52:07;24.17;30.97
64111;DHT22;50401;48.188;11.566;2024-03-25T07:54:33;25.31;29.47
64111;DHT22;50401;48.188;11.566;2024-03-25T07:56:58;26.23;28.85
64111;DHT22;50401;48.188;11.566;2024-03-25T07:59:24;26.20;28.07
64111;DHT22;50401;48.188;11.566;2024-03-25T08:01:50;26.56;28.11
64111;DHT22;50401;48.188;11.566;2024-03-25T08:04:15;27.10;27.62
64111;DHT22;50401;48.188;11.566;2024-03-25T08:06:41;25.06;28.64
64111;DHT22;50401;48.188;11.566;2024-03-25T08:09:06;25.50;28.77
64111;DHT22;50401;48.188;11.566;2024-03-25T08:11:32;25.86;28.07
64111;DHT22;50401;48.188;11.566;2024-03-25T08:13:58;25.20;29.17
64111;DHT22;50401;48.188;11.566;2024-03-25T08:16:24;26.17;27.95
64111;DHT22;50401;48.188;11.566;2024-03-25T08:18:49;23.91;30.69
64111;DHT22;50401;48.188;11.566;2024-03-25T08:21:16;22.19;32.10
64111;DHT22;50401;48.188;11.566;2024-03-25T08:23:44;20.07;35.27
64111;DHT22;50401;48.188;11.566;2024-03-25T08:26:09;17.93;38.73
64111;DHT22;50401;48.188;11.566;2024-03-25T08:28:34;17.27;40.61
64111;DHT22;50401;48.188;11.566;2024-03-25T08:31:00;17.08;41.15
64111;DHT22;50401;48.188;11.566;2024-03-25T08:33:25;16.88;42.47
64111;DHT22;50401;48.188;11.566;2024-03-25T08:35:51;19.17;37.96
64111;DHT22;50401;48.188;11.566;2024-03-25T08:38:16;18.63;38.78
64111;DHT22;50401;48.188;11.566;2024-03-25T08:40:42;21.97;33.60
64111;DHT22;50401;48.188;11.566;2024-03-25T08:43:07;23.60;31.18
64111;DHT22;50401;48.188;11.566;2024-03-25T08:45:33;23.15;31.72
64111;DHT22;50401;48.188;11.566;2024-03-25T08:47:58;22.83;32.29
64111;DHT22;50401;48.188;11.566;2024-03-25T08:50:24;23.11;32.47
64111;DHT22;50401;48.188;11.566;2024-03-25T08:52:49;21.08;34.67
64111;DHT22;50401;48.188;11.566;2024-03-25T08:55:15;18.89;37.32
64111;DHT22;50401;48.188;11.566;2024-03-25T08:57:40;17.24;40.32
64111;DHT22;50401;48.188;11.566;2024-03-25T09:00:06;15.74;43.20
64111;DHT22;50401;48.188;11.566;2024-03-25T09:02:38;15.50;43.79
64111;DHT22;50401;48.188;11.566;2024-03-25T09:05:04;13.65;47.26
64111;DHT22;50401;48.188;11.566;2024-03-25T09:07:36;13.58;47.90
64111;DHT22;50401;48.188;11.566;2024-03-25T09:10:01;13.31;48.42
64111;DHT22;50401;48.188;11.566;2024-03-25T09:12:46;12.89;48.49
64111;DHT22;50401;48.188;11.566;2024-03-25T09:15:11;13.03;47.83
64111;DHT22;50401;48.188;11.566;2024-03-25T09:17:37;12.72;49.26
64111;DHT22;50401;48.188;11.566;2024-03-25T09:20:03;12.57;50.28
64111;DHT22;50401;48.188;11.566;2024-03-25T09:22:46;12.63;50.84
64111;DHT22;50401;48.188;11.566;2024-03-25T09:25:16;13.22;49.17
64111;DHT22;50401;48.188;11.566;2024-03-25T09:27:48;12.57;50.43
64111;DHT22;50401;48.188;11.566;2024-03-25T09:30:14;12.25;50.88
64111;DHT22;50401;48.188;11.566;2024-03-25T09:32:41;12.08;50.16
64111;DHT22;50401;48.188;11.566;2024-03-25T09:35:07;11.96;50.86
64111;DHT22;50401;48.188;11.566;2024-03-25T09:37:32;11.72;51.46
64111;DHT22;50401;48.188;11.566;2024-03-25T09:39:58;11.55;51.86
64111;DHT22;50401;48.188;11.566;2024-03-25T09:42:28;11.50;52.55
64111;DHT22;50401;48.188;11.566;2024-03-25T09:44:57;12.13;51.54
64111;DHT22;50401;48.188;11.566;2024-03-25T09:47:23;12.35;50.66
64111;DHT22;50401;48.188;11.566;2024-03-25T09:49:49;12.96;49.66
64111;DHT22;50401;48.188;11.566;2024-03-25T09:52:15;12.62;49.30
64111;DHT22;50401;48.188;11.566;2024-03-25T09:54:41;12.52;49.57
64111;DHT22;50401;48.188;11.566;2024-03-25T09:57:08;13.62;47.41
64111;DHT22;50401;48.188;11.566;2024-03-25T09:59:33;14.05;44.91
64111;DHT22;50401;48.188;11.566;2024-03-25T10:01:59;13.90;44.15
64111;DHT22;50401;48.188;11.566;2024-03-25T10:04:26;13.85;43.63
64111;DHT22;50401;48.188;11.566;2024-03-25T10:06:51;14.25;41.21
64111;DHT22;50401;48.188;11.566;2024-03-25T10:09:20;14.10;42.63
64111;DHT22;50401;48.188;11.566;2024-03-25T10:11:49;13.83;43.91
64111;DHT22;50401;48.188;11.566;2024-03-25T10:14:17;14.32;43.88
64111;DHT22;50401;48.188;11.566;2024-03-25T10:16:44;14.42;42.74
64111;DHT22;50401;48.188;11.566;2024-03-25T10:19:09;14.32;40.81
64111;DHT22;50401;48.188;11.566;2024-03-25T10:21:36;14.33;40.79
64111;DHT22;50401;48.188;11.566;2024-03-25T10:24:04;14.24;40.77
64111;DHT22;50401;48.188;11.566;2024-03-25T10:26:31;13.95;40.56
64111;DHT22;50401;48.188;11.566;2024-03-25T10:29:15;13.98;39.88
64111;DHT22;50401;48.188;11.566;2024-03-25T10:31:41;13.39;40.29
64111;DHT22;50401;48.188;11.566;2024-03-25T10:34:06;13.28;41.59
64111;DHT22;50401;48.188;11.566;2024-03-25T10:36:32;12.86;42.25
64111;DHT22;50401;48.188;11.566;2024-03-25T10:39:01;12.28;43.84
64111;DHT22;50401;48.188;11.566;2024-03-25T10:41:34;12.46;44.46
64111;DHT22;50401;48.188;11.566;2024-03-25T10:44:03;12.55;44.59
64111;DHT22;50401;48.188;11.566;2024-03-25T10:46:31;12.53;43.16
64111;DHT22;50401;48.188;11.566;2024-03-25T10:49:02;12.42;44.12
64111;DHT22;50401;48.188;11.566;2024-03-25T10:51:34;12.48;44.69
64111;DHT22;50401;48.188;11.566;2024-03-25T10:54:01;12.46;43.51
64111;DHT22;50401;48.188;11.566;2024-03-25T10:56:28;12.46;43.72
64111;DHT22;50401;48.188;11.566;2024-03-25T10:58:54;12.48;44.65
64111;DHT22;50401;48.188;11.566;2024-03-25T11:01:22;12.52;43.80
64111;DHT22;50401;48.188;11.566;2024-03-25T11:03:48;12.57;42.91
64111;DHT22;50401;48.188;11.566;2024-03-25T11:06:15;12.45;43.94
64111;DHT22;50401;48.188;11.566;2024-03-25T11:08:42;12.50;44.81
64111;DHT22;50401;48.188;11.566;2024-03-25T11:11:12;12.46;43.50
64111;DHT22;50401;48.188;11.566;2024-03-25T11:13:37;12.01;43.77
64111;DHT22;50401;48.188;11.566;2024-03-25T11:16:03;12.16;44.72
64111;DHT22;50401;48.188;11.566;2024-03-25T11:18:29;12.06;43.84
64111;DHT22;50401;48.188;11.566;2024-03-25T11:21:04;11.97;43.46
64111;DHT22;50401;48.188;11.566;2024-03-25T11:23:40;12.06;43.35
64111;DHT22;50401;48.188;11.566;2024-03-25T11:26:24;12.14;43.42
64111;DHT22;50401;48.188;11.566;2024-03-25T11:28:50;12.18;43.27
64111;DHT22;50401;48.188;11.566;2024-03-25T11:31:16;12.25;43.61
64111;DHT22;50401;48.188;11.566;2024-03-25T11:33:44;12.22;42.22
64111;DHT22;50401;48.188;11.566;2024-03-25T11:36:09;11.96;42.53
64111;DHT22;50401;48.188;11.566;2024-03-25T11:38:36;11.87;42.82
64111;DHT22;50401;48.188;11.566;2024-03-25T11:41:04;11.97;42.90
64111;DHT22;50401;48.188;11.566;2024-03-25T11:43:29;11.90;42.49
64111;DHT22;50401;48.188;11.566;2024-03-25T11:45:55;12.08;43.07
64111;DHT22;50401;48.188;11.566;2024-03-25T11:48:20;12.12;42.10
64111;DHT22;50401;48.188;11.566;2024-03-25T11:50:46;11.87;42.00
64111;DHT22;50401;48.188;11.566;2024-03-25T11:53:15;11.90;43.50
64111;DHT22;50401;48.188;11.566;2024-03-25T11:55:45;11.96;43.92
64111;DHT22;50401;48.188;11.566;2024-03-25T11:58:11;11.80;43.66
64111;DHT22;50401;48.188;11.566;2024-03-25T12:00:45;10.79;43.64
64111;DHT22;50401;48.188;11.566;2024-03-25T12:03:13;11.02;43.30
64111;DHT22;50401;48.188;11.566;2024-03-25T12:05:40;10.05;42.85
64111;DHT22;50401;48.188;11.566;2024-03-25T12:08:08;9.86;43.50
64111;DHT22;50401;48.188;11.566;2024-03-25T12:10:36;9.82;43.15
64111;DHT22;50401;48.188;11.566;2024-03-25T12:13:20;10.27;42.94
64111;DHT22;50401;48.188;11.566;2024-03-25T12:15:47;10.55;42.47
64111;DHT22;50401;48.188;11.566;2024-03-25T12:18:16;10.91;44.35
64111;DHT22;50401;48.188;11.566;2024-03-25T12:20:45;11.21;44.56
64111;DHT22;50401;48.188;11.566;2024-03-25T12:23:10;11.37;44.54
64111;DHT22;50401;48.188;11.566;2024-03-25T12:25:36;11.50;43.10
64111;DHT22;50401;48.188;11.566;2024-03-25T12:28:01;11.58;43.44
64111;DHT22;50401;48.188;11.566;2024-03-25T12:30:33;11.62;42.71
64111;DHT22;50401;48.188;11.566;2024-03-25T12:33:00;11.45;42.36
64111;DHT22;50401;48.188;11.566;2024-03-25T12:35:26;11.48;43.48
64111;DHT22;50401;48.188;11.566;2024-03-25T12:37:51;11.52;43.58
64111;DHT22;50401;48.188;11.566;2024-03-25T12:40:27;11.59;43.02
64111;DHT22;50401;48.188;11.566;2024-03-25T12:42:54;11.61;42.76
64111;DHT22;50401;48.188;11.566;2024-03-25T12:45:23;11.57;42.95
64111;DHT22;50401;48.188;11.566;2024-03-25T12:47:48;11.69;42.86
64111;DHT22;50401;48.188;11.566;2024-03-25T12:50:14;11.69;40.87
64111;DHT22;50401;48.188;11.566;2024-03-25T12:52:39;11.82;41.01
64111;DHT22;50401;48.188;11.566;2024-03-25T12:55:05;11.79;41.24
64111;DHT22;50401;48.188;11.566;2024-03-25T12:57:30;11.86;42.17
64111;DHT22;50401;48.188;11.566;2024-03-25T12:59:55;11.90;42.73
64111;DHT22;50401;48.188;11.566;2024-03-25T13:02:21;11.89;42.61
64111;DHT22;50401;48.188;11.566;2024-03-25T13:04:46;11.85;42.36
64111;DHT22;50401;48.188;11.566;2024-03-25T13:07:12;11.75;42.20
64111;DHT22;50401;48.188;11.566;2024-03-25T13:09:38;11.78;41.30
64111;DHT22;50401;48.188;11.566;2024-03-25T13:12:04;11.65;40.90
64111;DHT22;50401;48.188;11.566;2024-03-25T13:14:30;11.71;41.72
64111;DHT22;50401;48.188;11.566;2024-03-25T13:16:55;11.83;41.28
64111;DHT22;50401;48.188;11.566;2024-03-25T13:19:21;11.76;41.10
64111;DHT22;50401;48.188;11.566;2024-03-25T13:21:46;11.41;40.25
64111;DHT22;50401;48.188;11.566;2024-03-25T13:24:13;11.57;41.49
64111;DHT22;50401;48.188;11.566;2024-03-25T13:26:39;11.63;41.21
64111;DHT22;50401;48.188;11.566;2024-03-25T13:29:04;11.75;39.41
64111;DHT22;50401;48.188;11.566;2024-03-25T13:31:30;11.87;39.62
64111;DHT22;50401;48.188;11.566;2024-03-25T13:33:55;11.87;39.36
64111;DHT22;50401;48.188;11.566;2024-03-25T13:36:21;11.80;38.64
64111;DHT22;50401;48.188;11.566;2024-03-25T13:38:46;11.71;38.41
64111;DHT22;50401;48.188;11.566;2024-03-25T13:41:12;11.72;39.02
64111;DHT22;50401;48.188;11.566;2024-03-25T13:43:42;11.65;40.37
64111;DHT22;50401;48.188;11.566;2024-03-25T13:46:08;10.91;42.27
64111;DHT22;50401;48.188;11.566;2024-03-25T13:48:34;11.11;42.00
64111;DHT22;50401;48.188;11.566;2024-03-25T13:50:59;11.31;41.03
64111;DHT22;50401;48.188;11.566;2024-03-25T13:53:25;11.31;40.76
64111;DHT22;50401;48.188;11.566;2024-03-25T13:55:50;11.38;41.38
64111;DHT22;50401;48.188;11.566;2024-03-25T13:58:16;11.13;41.92
64111;DHT22;50401;48.188;11.566;2024-03-25T14:00:41;11.19;41.27
64111;DHT22;50401;48.188;11.566;2024-03-25T14:03:07;11.19;40.87
64111;DHT22;50401;48.188;11.566;2024-03-25T14:05:33;10.73;41.18
64111;DHT22;50401;48.188;11.566;2024-03-25T14:07:59;10.64;42.99
64111;DHT22;50401;48.188;11.566;2024-03-25T14:10:24;10.82;43.31
64111;DHT22;50401;48.188;11.566;2024-03-25T14:12:49;10.61;42.10
64111;DHT22;50401;48.188;11.566;2024-03-25T14:15:15;10.78;41.93
64111;DHT22;50401;48.188;11.566;2024-03-25T14:17:40;10.71;41.21
64111;DHT22;50401;48.188;11.566;2024-03-25T14:20:07;10.79;41.05
64111;DHT22;50401;48.188;11.566;2024-03-25T14:22:34;10.82;40.84
64111;DHT22;50401;48.188;11.566;2024-03-25T14:24:59;10.65;40.59
64111;DHT22;50401;48.188;11.566;2024-03-25T14:27:25;10.57;41.63
64111;DHT22;50401;48.188;11.566;2024-03-25T14:29:51;10.43;41.95
64111;DHT22;50401;48.188;11.566;2024-03-25T14:32:19;10.72;41.43
64111;DHT22;50401;48.188;11.566;2024-03-25T14:34:45;10.95;41.09
64111;DHT22;50401;48.188;11.566;2024-03-25T14:37:11;11.10;41.61
64111;DHT22;50401;48.188;11.566;2024-03-25T14:39:36;11.17;42.25
64111;DHT22;50401;48.188;11.566;2024-03-25T14:42:02;10.95;41.53
64111;DHT22;50401;48.188;11.566;2024-03-25T14:44:29;10.85;41.69
64111;DHT22;50401;48.188;11.566;2024-03-25T14:46:54;10.72;43.12
64111;DHT22;50401;48.188;11.566;2024-03-25T14:49:20;10.72;43.96
64111;DHT22;50401;48.188;11.566;2024-03-25T14:51:45;10.80;42.99
64111;DHT22;50401;48.188;11.566;2024-03-25T14:54:11;10.50;42.93
64111;DHT22;50401;48.188;11.566;2024-03-25T14:56:36;10.58;42.61
64111;DHT22;50401;48.188;11.566;2024-03-25T14:59:01;10.54;43.16
64111;DHT22;50401;48.188;11.566;2024-03-25T15:01:27;10.40;42.85
64111;DHT22;50401;48.188;11.566;2024-03-25T15:03:53;10.64;43.31
64111;DHT22;50401;48.188;11.566;2024-03-25T15:06:19;10.52;42.97
64111;DHT22;50401;48.188;11.566;2024-03-25T15:08:44;10.47;43.27
64111;DHT22;50401;48.188;11.566;2024-03-25T15:11:10;10.36;43.09
64111;DHT22;50401;48.188;11.566;2024-03-25T15:13:36;10.45;43.57
64111;DHT22;50401;48.188;11.566;2024-03-25T15:16:04;10.58;43.70
64111;DHT22;50401;48.188;11.566;2024-03-25T15:18:30;10.76;43.76